sensor_id;sensor_type;location;lat;lon;timestamp;P1;durP1;ratioP1;P2;durP2;ratioP2
21820;SDS011;11073;48.586;12.066;2022-12-18T00:00:22;64.40;;;29.80;;
21820;SDS011;11073;48.586;12.066;2022-12-18T00:02:55;67.07;;;27.57;;
21820;SDS011;11073;48.586;12.066;2022-12-18T00:05:24;71.53;;;29.57;;
21820;SDS011;11073;48.586;12.066;2022-12-18T00:07:53;75.23;;;28.37;;
21820;SDS011;11073;48.586;12.066;2022-12-18T00:10:22;66.70;;;29.53;;
21820;SDS011;11073;48.586;12.066;2022-12-18T00:12:51;75.47;;;30.47;;
21820;SDS011;11073;48.586;12.066;2022-12-18T00:15:20;70.10;;;29.27;;
21820;SDS011;11073;48.586;12.066;2022-12-18T00:17:49;66.80;;;28.80;;
21820;SDS011;11073;48.586;12.066;2022-12-18T00:20:18;67.67;;;30.43;;
21820;SDS011;11073;48.586;12.066;2022-12-18T00:22:53;64.10;;;28.73;;
21820;SDS011;11073;48.586;12.066;2022-12-18T00:25:22;61.23;;;28.03;;
21820;SDS011;11073;48.586;12.066;2022-12-18T00:27:51;70.37;;;30.60;;
21820;SDS011;11073;48.586;12.066;2022-12-18T00:30:19;67.53;;;28.87;;
21820;SDS011;11073;48.586;12.066;2022-12-18T00:32:48;67.17;;;29.37;;
21820;SDS011;11073;48.586;12.066;2022-12-18T00:35:19;73.20;;;30.20;;
21820;SDS011;11073;48.586;12.066;2022-12-18T00:37:48;73.07;;;30.57;;
21820;SDS011;11073;48.586;12.066;2022-12-18T00:40:16;67.97;;;28.40;;
21820;SDS011;11073;48.586;12.066;2022-12-18T00:42:45;63.77;;;28.70;;
21820;SDS011;11073;48.586;12.066;2022-12-18T00:45:23;61.00;;;28.70;;
21820;SDS011;11073;48.586;12.066;2022-12-18T00:47:52;62.90;;;26.90;;
21820;SDS011;11073;48.586;12.066;2022-12-18T00:50:24;72.03;;;30.40;;
21820;SDS011;11073;48.586;12.066;2022-12-18T00:52:53;67.70;;;28.40;;
21820;SDS011;11073;48.586;12.066;2022-12-18T00:55:22;65.33;;;29.87;;
21820;SDS011;11073;48.586;12.066;2022-12-18T00:57:50;70.97;;;30.67;;
21820;SDS011;11073;48.586;12.066;2022-12-18T01:00:20;65.30;;;29.17;;
21820;SDS011;11073;48.586;12.066;2022-12-18T01:02:49;60.93;;;27.23;;
21820;SDS011;11073;48.586;12.066;2022-12-18T01:05:18;72.07;;;30.17;;
21820;SDS011;11073;48.586;12.066;2022-12-18T01:07:48;64.00;;;28.67;;
21820;SDS011;11073;48.586;12.066;2022-12-18T01:10:18;66.17;;;29.43;;
21820;SDS011;11073;48.586;12.066;2022-12-18T01:12:47;76.07;;;30.70;;
21820;SDS011;11073;48.586;12.066;2022-12-18T01:15:17;67.73;;;30.27;;
21820;SDS011;11073;48.586;12.066;2022-12-18T01:17:46;73.93;;;32.20;;
21820;SDS011;11073;48.586;12.066;2022-12-18T01:20:15;65.10;;;30.17;;
21820;SDS011;11073;48.586;12.066;2022-12-18T01:22:45;71.67;;;30.30;;
21820;SDS011;11073;48.586;12.066;2022-12-18T01:25:15;76.83;;;30.50;;
21820;SDS011;11073;48.586;12.066;2022-12-18T01:27:44;82.43;;;35.87;;
21820;SDS011;11073;48.586;12.066;2022-12-18T01:30:12;76.17;;;33.53;;
21820;SDS011;11073;48.586;12.066;2022-12-18T01:32:41;72.00;;;32.73;;
21820;SDS011;11073;48.586;12.066;2022-12-18T01:35:10;75.70;;;32.03;;
21820;SDS011;11073;48.586;12.066;2022-12-18T01:37:39;70.23;;;31.97;;
21820;SDS011;11073;48.586;12.066;2022-12-18T01:40:08;67.60;;;30.93;;
21820;SDS011;11073;48.586;12.066;2022-12-18T01:42:40;61.13;;;28.17;;
21820;SDS011;11073;48.586;12.066;2022-12-18T01:45:23;75.50;;;36.23;;
21820;SDS011;11073;48.586;12.066;2022-12-18T01:47:55;75.37;;;35.33;;
21820;SDS011;11073;48.586;12.066;2022-12-18T01:50:27;79.53;;;32.07;;
21820;SDS011;11073;48.586;12.066;2022-12-18T01:53:02;71.83;;;31.90;;
21820;SDS011;11073;48.586;12.066;2022-12-18T01:55:35;78.13;;;34.70;;
21820;SDS011;11073;48.586;12.066;2022-12-18T01:58:10;91.97;;;42.17;;
21820;SDS011;11073;48.586;12.066;2022-12-18T02:00:39;78.93;;;39.97;;
21820;SDS011;11073;48.586;12.066;2022-12-18T02:03:08;77.30;;;39.70;;
21820;SDS011;11073;48.586;12.066;2022-12-18T02:05:40;88.20;;;45.10;;
21820;SDS011;11073;48.586;12.066;2022-12-18T02:08:18;82.10;;;37.33;;
21820;SDS011;11073;48.586;12.066;2022-12-18T02:10:53;70.40;;;33.03;;
21820;SDS011;11073;48.586;12.066;2022-12-18T02:13:36;66.40;;;31.10;;
21820;SDS011;11073;48.586;12.066;2022-12-18T02:16:10;68.80;;;31.40;;
21820;SDS011;11073;48.586;12.066;2022-12-18T02:18:48;65.60;;;31.73;;
21820;SDS011;11073;48.586;12.066;2022-12-18T02:21:23;72.37;;;31.53;;
21820;SDS011;11073;48.586;12.066;2022-12-18T02:24:10;77.50;;;32.10;;
21820;SDS011;11073;48.586;12.066;2022-12-18T02:26:55;71.27;;;31.17;;
21820;SDS011;11073;48.586;12.066;2022-12-18T02:29:29;65.97;;;31.27;;
21820;SDS011;11073;48.586;12.066;2022-12-18T02:32:04;69.87;;;30.60;;
21820;SDS011;11073;48.586;12.066;2022-12-18T02:34:38;73.63;;;31.47;;
21820;SDS011;11073;48.586;12.066;2022-12-18T02:37:13;68.50;;;31.40;;
21820;SDS011;11073;48.586;12.066;2022-12-18T02:39:48;71.63;;;31.33;;
21820;SDS011;11073;48.586;12.066;2022-12-18T02:42:19;74.57;;;32.43;;
21820;SDS011;11073;48.586;12.066;2022-12-18T02:44:49;78.47;;;32.77;;
21820;SDS011;11073;48.586;12.066;2022-12-18T02:47:24;74.57;;;32.43;;
21820;SDS011;11073;48.586;12.066;2022-12-18T02:49:58;68.70;;;31.23;;
21820;SDS011;11073;48.586;12.066;2022-12-18T02:52:36;68.00;;;30.80;;
21820;SDS011;11073;48.586;12.066;2022-12-18T02:55:18;63.13;;;29.43;;
21820;SDS011;11073;48.586;12.066;2022-12-18T02:58:04;60.93;;;28.20;;
21820;SDS011;11073;48.586;12.066;2022-12-18T03:00:41;78.43;;;31.93;;
21820;SDS011;11073;48.586;12.066;2022-12-18T03:03:16;67.93;;;29.97;;
21820;SDS011;11073;48.586;12.066;2022-12-18T03:05:53;77.80;;;32.00;;
21820;SDS011;11073;48.586;12.066;2022-12-18T03:08:27;82.17;;;32.17;;
21820;SDS011;11073;48.586;12.066;2022-12-18T03:11:00;76.03;;;32.37;;
21820;SDS011;11073;48.586;12.066;2022-12-18T03:13:34;67.13;;;30.30;;
21820;SDS011;11073;48.586;12.066;2022-12-18T03:16:07;69.27;;;30.23;;
21820;SDS011;11073;48.586;12.066;2022-12-18T03:18:41;78.73;;;32.93;;
21820;SDS011;11073;48.586;12.066;2022-12-18T03:21:14;65.77;;;29.93;;
21820;SDS011;11073;48.586;12.066;2022-12-18T03:23:50;67.07;;;31.13;;
21820;SDS011;11073;48.586;12.066;2022-12-18T03:26:25;69.87;;;30.87;;
21820;SDS011;11073;48.586;12.066;2022-12-18T03:29:02;65.07;;;28.80;;
21820;SDS011;11073;48.586;12.066;2022-12-18T03:31:35;57.23;;;24.10;;
21820;SDS011;11073;48.586;12.066;2022-12-18T03:34:09;56.80;;;25.77;;
21820;SDS011;11073;48.586;12.066;2022-12-18T03:36:43;65.20;;;27.37;;
21820;SDS011;11073;48.586;12.066;2022-12-18T03:39:13;60.50;;;27.30;;
21820;SDS011;11073;48.586;12.066;2022-12-18T03:41:50;60.00;;;26.70;;
21820;SDS011;11073;48.586;12.066;2022-12-18T03:44:32;65.47;;;29.60;;
21820;SDS011;11073;48.586;12.066;2022-12-18T03:47:09;62.43;;;27.80;;
21820;SDS011;11073;48.586;12.066;2022-12-18T03:49:45;64.60;;;28.03;;
21820;SDS011;11073;48.586;12.066;2022-12-18T03:52:20;62.87;;;26.73;;
21820;SDS011;11073;48.586;12.066;2022-12-18T03:54:55;60.70;;;28.17;;
21820;SDS011;11073;48.586;12.066;2022-12-18T03:57:27;67.00;;;28.60;;
21820;SDS011;11073;48.586;12.066;2022-12-18T04:00:00;60.60;;;26.90;;
21820;SDS011;11073;48.586;12.066;2022-12-18T04:03:02;60.70;;;27.50;;
21820;SDS011;11073;48.586;12.066;2022-12-18T04:05:40;64.13;;;28.80;;
21820;SDS011;11073;48.586;12.066;2022-12-18T04:08:13;65.20;;;29.57;;
21820;SDS011;11073;48.586;12.066;2022-12-18T04:10:50;75.07;;;30.87;;
21820;SDS011;11073;48.586;12.066;2022-12-18T04:13:22;75.83;;;32.60;;
21820;SDS011;11073;48.586;12.066;2022-12-18T04:15:53;67.20;;;29.33;;
21820;SDS011;11073;48.586;12.066;2022-12-18T04:18:23;63.27;;;30.13;;
21820;SDS011;11073;48.586;12.066;2022-12-18T04:20:53;65.77;;;28.30;;
21820;SDS011;11073;48.586;12.066;2022-12-18T04:23:22;69.37;;;30.07;;
21820;SDS011;11073;48.586;12.066;2022-12-18T04:25:53;64.60;;;27.17;;
21820;SDS011;11073;48.586;12.066;2022-12-18T04:28:35;64.90;;;26.93;;
21820;SDS011;11073;48.586;12.066;2022-12-18T04:31:06;65.13;;;29.07;;
21820;SDS011;11073;48.586;12.066;2022-12-18T04:33:34;71.10;;;30.40;;
21820;SDS011;11073;48.586;12.066;2022-12-18T04:36:05;69.93;;;30.40;;
21820;SDS011;11073;48.586;12.066;2022-12-18T04:38:35;65.93;;;29.97;;
21820;SDS011;11073;48.586;12.066;2022-12-18T04:41:07;65.03;;;28.63;;
21820;SDS011;11073;48.586;12.066;2022-12-18T04:43:36;65.00;;;29.37;;
21820;SDS011;11073;48.586;12.066;2022-12-18T04:46:08;59.23;;;27.63;;
21820;SDS011;11073;48.586;12.066;2022-12-18T04:48:37;60.13;;;27.73;;
21820;SDS011;11073;48.586;12.066;2022-12-18T04:51:06;62.97;;;28.27;;
21820;SDS011;11073;48.586;12.066;2022-12-18T04:53:35;61.27;;;27.70;;
21820;SDS011;11073;48.586;12.066;2022-12-18T04:56:06;58.00;;;27.37;;
21820;SDS011;11073;48.586;12.066;2022-12-18T04:58:36;59.53;;;27.07;;
21820;SDS011;11073;48.586;12.066;2022-12-18T05:01:05;66.93;;;29.70;;
21820;SDS011;11073;48.586;12.066;2022-12-18T05:03:36;68.23;;;29.37;;
21820;SDS011;11073;48.586;12.066;2022-12-18T05:06:06;64.83;;;28.27;;
21820;SDS011;11073;48.586;12.066;2022-12-18T05:08:35;67.07;;;29.63;;
21820;SDS011;11073;48.586;12.066;2022-12-18T05:11:05;67.93;;;29.63;;
21820;SDS011;11073;48.586;12.066;2022-12-18T05:13:35;66.33;;;29.60;;
21820;SDS011;11073;48.586;12.066;2022-12-18T05:16:06;65.03;;;28.63;;
21820;SDS011;11073;48.586;12.066;2022-12-18T05:18:37;58.23;;;26.57;;
21820;SDS011;11073;48.586;12.066;2022-12-18T05:21:05;59.10;;;26.70;;
21820;SDS011;11073;48.586;12.066;2022-12-18T05:23:34;62.20;;;28.77;;
21820;SDS011;11073;48.586;12.066;2022-12-18T05:26:04;65.90;;;29.50;;
21820;SDS011;11073;48.586;12.066;2022-12-18T05:28:35;68.57;;;29.00;;
21820;SDS011;11073;48.586;12.066;2022-12-18T05:31:04;60.67;;;27.97;;
21820;SDS011;11073;48.586;12.066;2022-12-18T05:33:35;69.40;;;28.83;;
21820;SDS011;11073;48.586;12.066;2022-12-18T05:36:05;66.37;;;28.33;;
21820;SDS011;11073;48.586;12.066;2022-12-18T05:38:36;57.00;;;26.67;;
21820;SDS011;11073;48.586;12.066;2022-12-18T05:41:06;59.83;;;27.00;;
21820;SDS011;11073;48.586;12.066;2022-12-18T05:43:36;59.80;;;27.67;;
21820;SDS011;11073;48.586;12.066;2022-12-18T05:46:07;55.40;;;25.97;;
21820;SDS011;11073;48.586;12.066;2022-12-18T05:48:38;60.27;;;26.50;;
21820;SDS011;11073;48.586;12.066;2022-12-18T05:51:07;50.53;;;24.63;;
21820;SDS011;11073;48.586;12.066;2022-12-18T05:53:38;58.07;;;26.67;;
21820;SDS011;11073;48.586;12.066;2022-12-18T05:56:09;57.77;;;25.87;;
21820;SDS011;11073;48.586;12.066;2022-12-18T05:58:39;52.40;;;24.03;;
21820;SDS011;11073;48.586;12.066;2022-12-18T06:01:08;54.43;;;24.40;;
21820;SDS011;11073;48.586;12.066;2022-12-18T06:03:40;57.63;;;24.97;;
21820;SDS011;11073;48.586;12.066;2022-12-18T06:06:13;54.27;;;24.17;;
21820;SDS011;11073;48.586;12.066;2022-12-18T06:08:43;55.97;;;25.77;;
21820;SDS011;11073;48.586;12.066;2022-12-18T06:11:13;52.90;;;24.20;;
21820;SDS011;11073;48.586;12.066;2022-12-18T06:13:45;49.63;;;25.23;;
21820;SDS011;11073;48.586;12.066;2022-12-18T06:16:14;53.70;;;25.87;;
21820;SDS011;11073;48.586;12.066;2022-12-18T06:18:44;54.60;;;25.50;;
21820;SDS011;11073;48.586;12.066;2022-12-18T06:21:13;57.70;;;25.87;;
21820;SDS011;11073;48.586;12.066;2022-12-18T06:23:41;59.73;;;26.10;;
21820;SDS011;11073;48.586;12.066;2022-12-18T06:26:11;57.03;;;26.33;;
21820;SDS011;11073;48.586;12.066;2022-12-18T06:28:41;60.30;;;27.60;;
21820;SDS011;11073;48.586;12.066;2022-12-18T06:31:10;53.03;;;25.80;;
21820;SDS011;11073;48.586;12.066;2022-12-18T06:33:39;62.23;;;27.33;;
21820;SDS011;11073;48.586;12.066;2022-12-18T06:36:11;64.70;;;29.17;;
21820;SDS011;11073;48.586;12.066;2022-12-18T06:38:41;65.90;;;28.27;;
21820;SDS011;11073;48.586;12.066;2022-12-18T06:41:11;68.37;;;29.60;;
21820;SDS011;11073;48.586;12.066;2022-12-18T06:43:41;57.17;;;27.07;;
21820;SDS011;11073;48.586;12.066;2022-12-18T06:46:10;57.33;;;26.40;;
21820;SDS011;11073;48.586;12.066;2022-12-18T06:48:40;56.10;;;27.47;;
21820;SDS011;11073;48.586;12.066;2022-12-18T06:51:10;55.27;;;26.27;;
21820;SDS011;11073;48.586;12.066;2022-12-18T06:53:38;55.50;;;27.13;;
21820;SDS011;11073;48.586;12.066;2022-12-18T06:56:07;66.63;;;29.33;;
21820;SDS011;11073;48.586;12.066;2022-12-18T06:58:37;59.90;;;27.60;;
21820;SDS011;11073;48.586;12.066;2022-12-18T07:01:06;63.97;;;28.13;;
21820;SDS011;11073;48.586;12.066;2022-12-18T07:03:37;62.53;;;28.83;;
21820;SDS011;11073;48.586;12.066;2022-12-18T07:06:13;65.43;;;28.37;;
21820;SDS011;11073;48.586;12.066;2022-12-18T07:08:44;58.63;;;27.20;;
21820;SDS011;11073;48.586;12.066;2022-12-18T07:11:12;59.80;;;27.93;;
21820;SDS011;11073;48.586;12.066;2022-12-18T07:13:41;61.00;;;27.00;;
21820;SDS011;11073;48.586;12.066;2022-12-18T07:16:11;62.67;;;28.90;;
21820;SDS011;11073;48.586;12.066;2022-12-18T07:18:50;58.87;;;26.53;;
21820;SDS011;11073;48.586;12.066;2022-12-18T07:21:20;58.17;;;28.47;;
21820;SDS011;11073;48.586;12.066;2022-12-18T07:23:49;52.80;;;25.73;;
21820;SDS011;11073;48.586;12.066;2022-12-18T07:26:19;64.40;;;29.03;;
21820;SDS011;11073;48.586;12.066;2022-12-18T07:28:49;61.10;;;27.17;;
21820;SDS011;11073;48.586;12.066;2022-12-18T07:31:19;60.00;;;27.93;;
21820;SDS011;11073;48.586;12.066;2022-12-18T07:33:49;60.37;;;26.87;;
21820;SDS011;11073;48.586;12.066;2022-12-18T07:36:20;60.40;;;28.00;;
21820;SDS011;11073;48.586;12.066;2022-12-18T07:38:49;60.10;;;27.13;;
21820;SDS011;11073;48.586;12.066;2022-12-18T07:41:19;57.73;;;28.40;;
21820;SDS011;11073;48.586;12.066;2022-12-18T07:43:48;56.27;;;27.10;;
21820;SDS011;11073;48.586;12.066;2022-12-18T07:46:17;59.00;;;26.83;;
21820;SDS011;11073;48.586;12.066;2022-12-18T07:48:46;62.67;;;28.63;;
21820;SDS011;11073;48.586;12.066;2022-12-18T07:51:16;57.50;;;28.40;;
21820;SDS011;11073;48.586;12.066;2022-12-18T07:53:47;60.17;;;27.63;;
21820;SDS011;11073;48.586;12.066;2022-12-18T07:56:18;59.83;;;26.97;;
21820;SDS011;11073;48.586;12.066;2022-12-18T07:58:57;53.93;;;25.63;;
21820;SDS011;11073;48.586;12.066;2022-12-18T08:01:26;54.63;;;25.63;;
21820;SDS011;11073;48.586;12.066;2022-12-18T08:03:55;55.93;;;26.23;;
21820;SDS011;11073;48.586;12.066;2022-12-18T08:06:25;56.20;;;27.13;;
21820;SDS011;11073;48.586;12.066;2022-12-18T08:08:55;61.10;;;29.10;;
21820;SDS011;11073;48.586;12.066;2022-12-18T08:11:25;62.97;;;28.40;;
21820;SDS011;11073;48.586;12.066;2022-12-18T08:13:55;60.77;;;27.57;;
21820;SDS011;11073;48.586;12.066;2022-12-18T08:16:25;59.33;;;26.53;;
21820;SDS011;11073;48.586;12.066;2022-12-18T08:18:54;56.77;;;27.33;;
21820;SDS011;11073;48.586;12.066;2022-12-18T08:21:24;60.17;;;28.07;;
21820;SDS011;11073;48.586;12.066;2022-12-18T08:23:56;53.93;;;25.33;;
21820;SDS011;11073;48.586;12.066;2022-12-18T08:26:27;54.60;;;26.13;;
21820;SDS011;11073;48.586;12.066;2022-12-18T08:28:58;63.30;;;27.73;;
21820;SDS011;11073;48.586;12.066;2022-12-18T08:31:28;64.23;;;27.80;;
21820;SDS011;11073;48.586;12.066;2022-12-18T08:33:58;60.77;;;28.00;;
21820;SDS011;11073;48.586;12.066;2022-12-18T08:36:27;59.50;;;26.83;;
21820;SDS011;11073;48.586;12.066;2022-12-18T08:38:57;65.17;;;27.10;;
21820;SDS011;11073;48.586;12.066;2022-12-18T08:41:26;59.37;;;27.30;;
21820;SDS011;11073;48.586;12.066;2022-12-18T08:43:55;61.10;;;26.43;;
21820;SDS011;11073;48.586;12.066;2022-12-18T08:46:41;58.10;;;25.53;;
21820;SDS011;11073;48.586;12.066;2022-12-18T08:49:11;60.10;;;27.57;;
21820;SDS011;11073;48.586;12.066;2022-12-18T08:51:40;55.80;;;26.23;;
21820;SDS011;11073;48.586;12.066;2022-12-18T08:54:10;57.17;;;26.53;;
21820;SDS011;11073;48.586;12.066;2022-12-18T08:56:40;60.53;;;28.03;;
21820;SDS011;11073;48.586;12.066;2022-12-18T08:59:08;54.83;;;25.57;;
21820;SDS011;11073;48.586;12.066;2022-12-18T09:01:45;52.80;;;24.43;;
21820;SDS011;11073;48.586;12.066;2022-12-18T09:04:15;50.87;;;23.97;;
21820;SDS011;11073;48.586;12.066;2022-12-18T09:06:43;46.07;;;23.00;;
21820;SDS011;11073;48.586;12.066;2022-12-18T09:09:15;47.90;;;22.57;;
21820;SDS011;11073;48.586;12.066;2022-12-18T09:11:43;46.83;;;23.13;;
21820;SDS011;11073;48.586;12.066;2022-12-18T09:14:12;52.83;;;24.00;;
21820;SDS011;11073;48.586;12.066;2022-12-18T09:16:40;52.33;;;25.10;;
21820;SDS011;11073;48.586;12.066;2022-12-18T09:19:09;45.60;;;23.60;;
21820;SDS011;11073;48.586;12.066;2022-12-18T09:21:38;49.30;;;23.50;;
21820;SDS011;11073;48.586;12.066;2022-12-18T09:24:15;52.33;;;24.77;;
21820;SDS011;11073;48.586;12.066;2022-12-18T09:26:44;55.10;;;25.03;;
21820;SDS011;11073;48.586;12.066;2022-12-18T09:29:13;50.20;;;23.33;;
21820;SDS011;11073;48.586;12.066;2022-12-18T09:31:44;43.57;;;22.33;;
21820;SDS011;11073;48.586;12.066;2022-12-18T09:34:13;44.90;;;22.43;;
21820;SDS011;11073;48.586;12.066;2022-12-18T09:36:42;48.43;;;23.97;;
21820;SDS011;11073;48.586;12.066;2022-12-18T09:39:13;49.53;;;24.00;;
21820;SDS011;11073;48.586;12.066;2022-12-18T09:41:45;49.70;;;23.37;;
21820;SDS011;11073;48.586;12.066;2022-12-18T09:44:19;52.10;;;25.17;;
21820;SDS011;11073;48.586;12.066;2022-12-18T09:47:03;51.43;;;24.33;;
21820;SDS011;11073;48.586;12.066;2022-12-18T09:49:54;43.23;;;22.03;;
21820;SDS011;11073;48.586;12.066;2022-12-18T09:52:26;49.23;;;22.03;;
21820;SDS011;11073;48.586;12.066;2022-12-18T09:55:03;47.27;;;22.23;;
21820;SDS011;11073;48.586;12.066;2022-12-18T09:57:42;46.63;;;23.20;;
21820;SDS011;11073;48.586;12.066;2022-12-18T10:00:19;43.47;;;20.47;;
21820;SDS011;11073;48.586;12.066;2022-12-18T10:02:49;49.57;;;23.23;;
21820;SDS011;11073;48.586;12.066;2022-12-18T10:05:24;55.27;;;24.30;;
21820;SDS011;11073;48.586;12.066;2022-12-18T10:08:04;49.77;;;24.67;;
21820;SDS011;11073;48.586;12.066;2022-12-18T10:10:37;50.73;;;23.70;;
21820;SDS011;11073;48.586;12.066;2022-12-18T10:13:12;43.33;;;21.20;;
21820;SDS011;11073;48.586;12.066;2022-12-18T10:15:53;42.03;;;22.00;;
21820;SDS011;11073;48.586;12.066;2022-12-18T10:18:32;49.27;;;22.00;;
21820;SDS011;11073;48.586;12.066;2022-12-18T10:21:18;45.93;;;22.60;;
21820;SDS011;11073;48.586;12.066;2022-12-18T10:23:54;49.30;;;23.70;;
21820;SDS011;11073;48.586;12.066;2022-12-18T10:26:31;48.07;;;23.20;;
21820;SDS011;11073;48.586;12.066;2022-12-18T10:29:03;49.90;;;23.57;;
21820;SDS011;11073;48.586;12.066;2022-12-18T10:31:36;47.73;;;23.23;;
21820;SDS011;11073;48.586;12.066;2022-12-18T10:34:07;50.57;;;24.00;;
21820;SDS011;11073;48.586;12.066;2022-12-18T10:36:37;47.63;;;22.80;;
21820;SDS011;11073;48.586;12.066;2022-12-18T10:39:14;54.93;;;25.80;;
21820;SDS011;11073;48.586;12.066;2022-12-18T10:41:43;57.33;;;26.73;;
21820;SDS011;11073;48.586;12.066;2022-12-18T10:44:15;46.03;;;22.97;;
21820;SDS011;11073;48.586;12.066;2022-12-18T10:46:45;46.53;;;23.33;;
21820;SDS011;11073;48.586;12.066;2022-12-18T10:49:21;43.10;;;21.73;;
21820;SDS011;11073;48.586;12.066;2022-12-18T10:52:03;46.37;;;22.53;;
21820;SDS011;11073;48.586;12.066;2022-12-18T10:54:33;49.07;;;22.53;;
21820;SDS011;11073;48.586;12.066;2022-12-18T10:57:16;43.37;;;22.03;;
21820;SDS011;11073;48.586;12.066;2022-12-18T10:59:59;42.00;;;21.30;;
21820;SDS011;11073;48.586;12.066;2022-12-18T11:02:48;44.13;;;22.00;;
21820;SDS011;11073;48.586;12.066;2022-12-18T11:05:27;49.60;;;23.47;;
21820;SDS011;11073;48.586;12.066;2022-12-18T11:07:58;44.73;;;22.27;;
21820;SDS011;11073;48.586;12.066;2022-12-18T11:10:30;38.43;;;19.47;;
21820;SDS011;11073;48.586;12.066;2022-12-18T11:13:10;37.97;;;20.07;;
21820;SDS011;11073;48.586;12.066;2022-12-18T11:15:42;40.77;;;20.87;;
21820;SDS011;11073;48.586;12.066;2022-12-18T11:18:16;40.37;;;20.33;;
21820;SDS011;11073;48.586;12.066;2022-12-18T11:20:51;35.27;;;19.73;;
21820;SDS011;11073;48.586;12.066;2022-12-18T11:23:25;35.63;;;19.03;;
21820;SDS011;11073;48.586;12.066;2022-12-18T11:25:56;34.93;;;19.67;;
21820;SDS011;11073;48.586;12.066;2022-12-18T11:28:27;33.47;;;18.83;;
21820;SDS011;11073;48.586;12.066;2022-12-18T11:34:00;37.43;;;20.13;;
21820;SDS011;11073;48.586;12.066;2022-12-18T11:36:52;44.27;;;20.77;;
21820;SDS011;11073;48.586;12.066;2022-12-18T11:39:24;33.13;;;18.67;;
21820;SDS011;11073;48.586;12.066;2022-12-18T11:42:04;38.97;;;19.47;;
21820;SDS011;11073;48.586;12.066;2022-12-18T11:44:41;38.87;;;20.13;;
21820;SDS011;11073;48.586;12.066;2022-12-18T11:47:24;38.57;;;20.40;;
21820;SDS011;11073;48.586;12.066;2022-12-18T11:49:59;35.70;;;20.23;;
21820;SDS011;11073;48.586;12.066;2022-12-18T11:52:31;38.90;;;20.00;;
21820;SDS011;11073;48.586;12.066;2022-12-18T11:55:08;36.23;;;21.20;;
21820;SDS011;11073;48.586;12.066;2022-12-18T11:57:41;40.97;;;21.83;;
21820;SDS011;11073;48.586;12.066;2022-12-18T12:00:18;40.13;;;20.27;;
21820;SDS011;11073;48.586;12.066;2022-12-18T12:02:57;41.33;;;22.77;;
21820;SDS011;11073;48.586;12.066;2022-12-18T12:05:54;42.73;;;24.07;;
21820;SDS011;11073;48.586;12.066;2022-12-18T12:08:34;39.07;;;20.87;;
21820;SDS011;11073;48.586;12.066;2022-12-18T12:11:14;43.53;;;23.43;;
21820;SDS011;11073;48.586;12.066;2022-12-18T12:13:53;40.77;;;21.60;;
21820;SDS011;11073;48.586;12.066;2022-12-18T12:16:32;36.43;;;20.57;;
21820;SDS011;11073;48.586;12.066;2022-12-18T12:19:15;43.80;;;21.30;;
21820;SDS011;11073;48.586;12.066;2022-12-18T12:21:54;39.13;;;20.63;;
21820;SDS011;11073;48.586;12.066;2022-12-18T12:24:33;39.93;;;19.83;;
21820;SDS011;11073;48.586;12.066;2022-12-18T12:27:15;36.37;;;20.63;;
21820;SDS011;11073;48.586;12.066;2022-12-18T12:29:55;39.77;;;20.47;;
21820;SDS011;11073;48.586;12.066;2022-12-18T12:32:45;39.63;;;20.63;;
21820;SDS011;11073;48.586;12.066;2022-12-18T12:35:32;37.03;;;19.53;;
21820;SDS011;11073;48.586;12.066;2022-12-18T12:38:11;35.80;;;20.13;;
21820;SDS011;11073;48.586;12.066;2022-12-18T12:40:45;38.33;;;20.50;;
21820;SDS011;11073;48.586;12.066;2022-12-18T12:43:32;33.43;;;18.90;;
21820;SDS011;11073;48.586;12.066;2022-12-18T12:46:15;38.17;;;20.23;;
21820;SDS011;11073;48.586;12.066;2022-12-18T12:48:50;43.90;;;21.57;;
21820;SDS011;11073;48.586;12.066;2022-12-18T12:51:23;45.23;;;23.80;;
21820;SDS011;11073;48.586;12.066;2022-12-18T12:53:55;40.23;;;21.37;;
21820;SDS011;11073;48.586;12.066;2022-12-18T12:56:27;39.37;;;20.50;;
21820;SDS011;11073;48.586;12.066;2022-12-18T12:59:08;43.53;;;22.20;;
21820;SDS011;11073;48.586;12.066;2022-12-18T13:01:47;42.97;;;20.10;;
21820;SDS011;11073;48.586;12.066;2022-12-18T13:04:23;41.30;;;21.93;;
21820;SDS011;11073;48.586;12.066;2022-12-18T13:07:01;40.40;;;22.00;;
21820;SDS011;11073;48.586;12.066;2022-12-18T13:10:12;40.87;;;21.00;;
21820;SDS011;11073;48.586;12.066;2022-12-18T13:12:52;41.97;;;21.87;;
21820;SDS011;11073;48.586;12.066;2022-12-18T13:15:32;39.50;;;20.60;;
21820;SDS011;11073;48.586;12.066;2022-12-18T13:18:11;40.00;;;20.57;;
21820;SDS011;11073;48.586;12.066;2022-12-18T13:20:43;39.50;;;20.60;;
21820;SDS011;11073;48.586;12.066;2022-12-18T13:23:30;38.60;;;19.43;;
21820;SDS011;11073;48.586;12.066;2022-12-18T13:29:02;39.20;;;19.33;;
21820;SDS011;11073;48.586;12.066;2022-12-18T13:34:48;40.17;;;19.40;;
21820;SDS011;11073;48.586;12.066;2022-12-18T13:37:41;38.33;;;21.37;;
21820;SDS011;11073;48.586;12.066;2022-12-18T13:43:32;37.40;;;20.53;;
21820;SDS011;11073;48.586;12.066;2022-12-18T13:46:05;38.63;;;20.03;;
21820;SDS011;11073;48.586;12.066;2022-12-18T13:48:56;39.17;;;20.93;;
21820;SDS011;11073;48.586;12.066;2022-12-18T13:51:28;41.40;;;20.47;;
21820;SDS011;11073;48.586;12.066;2022-12-18T13:54:00;40.83;;;21.13;;
21820;SDS011;11073;48.586;12.066;2022-12-18T13:56:32;37.20;;;19.20;;
21820;SDS011;11073;48.586;12.066;2022-12-18T14:01:51;41.40;;;21.00;;
21820;SDS011;11073;48.586;12.066;2022-12-18T14:04:24;37.90;;;20.90;;
21820;SDS011;11073;48.586;12.066;2022-12-18T14:06:56;38.37;;;20.70;;
21820;SDS011;11073;48.586;12.066;2022-12-18T14:09:28;40.80;;;20.77;;
21820;SDS011;11073;48.586;12.066;2022-12-18T14:11:59;39.30;;;20.00;;
21820;SDS011;11073;48.586;12.066;2022-12-18T14:14:48;42.00;;;21.30;;
21820;SDS011;11073;48.586;12.066;2022-12-18T14:17:22;41.97;;;21.53;;
21820;SDS011;11073;48.586;12.066;2022-12-18T14:19:52;49.53;;;25.97;;
21820;SDS011;11073;48.586;12.066;2022-12-18T14:22:21;47.20;;;24.47;;
21820;SDS011;11073;48.586;12.066;2022-12-18T14:25:05;48.77;;;24.80;;
21820;SDS011;11073;48.586;12.066;2022-12-18T14:27:44;47.03;;;23.33;;
21820;SDS011;11073;48.586;12.066;2022-12-18T14:30:29;45.30;;;22.53;;
21820;SDS011;11073;48.586;12.066;2022-12-18T14:33:01;45.87;;;24.93;;
21820;SDS011;11073;48.586;12.066;2022-12-18T14:35:32;41.07;;;20.90;;
21820;SDS011;11073;48.586;12.066;2022-12-18T14:38:17;46.33;;;22.43;;
21820;SDS011;11073;48.586;12.066;2022-12-18T14:40:53;42.93;;;22.03;;
21820;SDS011;11073;48.586;12.066;2022-12-18T14:43:26;48.00;;;22.43;;
21820;SDS011;11073;48.586;12.066;2022-12-18T14:45:57;41.33;;;22.03;;
21820;SDS011;11073;48.586;12.066;2022-12-18T14:48:36;42.83;;;23.67;;
21820;SDS011;11073;48.586;12.066;2022-12-18T14:51:14;44.50;;;23.53;;
21820;SDS011;11073;48.586;12.066;2022-12-18T14:53:45;46.10;;;24.47;;
21820;SDS011;11073;48.586;12.066;2022-12-18T14:56:22;46.70;;;23.57;;
21820;SDS011;11073;48.586;12.066;2022-12-18T14:58:53;42.97;;;22.37;;